createdAt,value
2023-02-11T00:01:33.508Z,0.90
2023-02-11T00:04:03.464Z,1.00
2023-02-11T00:06:35.300Z,1.30
2023-02-11T00:09:04.322Z,1.50
2023-02-11T00:11:32.100Z,0.90
2023-02-11T00:14:04.233Z,0.90
2023-02-11T00:16:32.945Z,1.70
2023-02-11T00:19:02.443Z,0.60
2023-02-11T00:21:30.880Z,1.20
2023-02-11T00:24:02.266Z,1.30
2023-02-11T00:26:35.421Z,1.20
2023-02-11T00:29:07.251Z,0.80
2023-02-11T00:31:35.483Z,1.00
2023-02-11T00:34:03.390Z,1.30
2023-02-11T00:36:31.284Z,2.20
2023-02-11T00:39:00.191Z,3.20
2023-02-11T00:41:28.055Z,3.00
2023-02-11T00:43:55.923Z,2.50
2023-02-11T00:46:24.628Z,1.70
2023-02-11T00:48:55.212Z,1.00
2023-02-11T00:51:26.865Z,1.10
2023-02-11T00:53:55.762Z,1.10
2023-02-11T00:56:25.873Z,1.50
2023-02-11T00:58:54.074Z,0.90
2023-02-11T01:01:22.199Z,0.50
2023-02-11T01:03:50.175Z,0.60
2023-02-11T01:06:19.734Z,0.50
2023-02-11T01:08:47.461Z,0.50
2023-02-11T01:11:19.454Z,0.50
2023-02-11T01:13:49.572Z,0.50
2023-02-11T01:16:20.607Z,0.30
2023-02-11T01:18:50.841Z,0.40
2023-02-11T01:21:19.519Z,0.30
2023-02-11T01:23:47.388Z,0.50
2023-02-11T01:26:15.265Z,0.50
2023-02-11T01:28:43.037Z,0.40
2023-02-11T01:31:10.918Z,0.40
2023-02-11T01:33:38.938Z,0.40
2023-02-11T01:36:08.148Z,0.30
2023-02-11T01:38:36.274Z,0.30
2023-02-11T01:41:11.329Z,0.30
2023-02-11T01:43:46.626Z,0.50
2023-02-11T01:46:38.578Z,0.30
2023-02-11T01:49:16.885Z,0.30
2023-02-11T01:51:51.513Z,0.40
2023-02-11T01:54:45.044Z,0.30
2023-02-11T01:57:25.141Z,0.30
2023-02-11T02:00:16.520Z,0.40
2023-02-11T02:03:12.002Z,0.40
2023-02-11T02:05:58.211Z,0.40
2023-02-11T02:08:41.276Z,0.30
2023-02-11T02:11:10.248Z,0.30
2023-02-11T02:13:39.274Z,0.30
2023-02-11T02:16:13.385Z,0.40
2023-02-11T02:19:31.829Z,0.50
2023-02-11T02:22:47.899Z,0.40
2023-02-11T02:25:30.660Z,0.30
2023-02-11T02:28:33.886Z,0.40
2023-02-11T02:31:28.369Z,0.50
2023-02-11T02:34:06.704Z,0.40
2023-02-11T02:36:46.224Z,0.40
2023-02-11T02:39:27.723Z,0.50
2023-02-11T02:41:57.093Z,0.40
2023-02-11T02:44:29.877Z,0.70
2023-02-11T02:47:00.107Z,0.80
2023-02-11T02:49:28.221Z,0.40
2023-02-11T02:52:35.978Z,0.50
2023-02-11T02:55:50.601Z,0.50
2023-02-11T02:58:55.741Z,0.30
2023-02-11T03:02:02.133Z,0.30
2023-02-11T03:04:57.363Z,0.60
2023-02-11T03:07:59.213Z,0.60
2023-02-11T03:10:36.584Z,0.40
2023-02-11T03:13:07.827Z,0.50
2023-02-11T03:15:43.293Z,0.40
2023-02-11T03:18:18.782Z,0.80
2023-02-11T03:20:52.067Z,0.80
2023-02-11T03:23:35.394Z,0.50
2023-02-11T03:26:23.377Z,0.60
2023-02-11T03:29:06.977Z,0.50
2023-02-11T03:34:25.749Z,0.60
2023-02-11T03:37:19.241Z,0.50
2023-02-11T03:39:55.962Z,0.50
2023-02-11T03:42:30.169Z,0.60
2023-02-11T03:45:10.814Z,0.50
2023-02-11T03:47:43.513Z,0.40
2023-02-11T03:50:15.691Z,0.50
2023-02-11T03:52:49.817Z,0.40
2023-02-11T03:55:23.495Z,0.50
2023-02-11T03:57:52.373Z,0.70
2023-02-11T04:00:20.123Z,0.40
2023-02-11T04:02:47.816Z,0.60
2023-02-11T04:05:16.837Z,0.70
2023-02-11T04:07:44.788Z,0.60
2023-02-11T04:10:13.427Z,0.50
2023-02-11T04:12:41.232Z,0.70
2023-02-11T04:15:09.562Z,0.60
2023-02-11T04:17:39.393Z,0.60
2023-02-11T04:20:08.389Z,0.60
2023-02-11T04:22:38.118Z,0.40
2023-02-11T04:25:08.437Z,0.40
2023-02-11T04:27:36.814Z,0.50
2023-02-11T04:30:07.310Z,0.40
2023-02-11T04:32:35.506Z,0.40
2023-02-11T04:35:05.137Z,0.50
2023-02-11T04:37:32.868Z,0.50
2023-02-11T04:40:01.388Z,0.30
2023-02-11T04:42:29.653Z,0.50
2023-02-11T04:44:57.714Z,0.60
2023-02-11T04:47:25.595Z,0.40
2023-02-11T04:49:53.924Z,0.60
2023-02-11T04:52:21.664Z,0.60
2023-02-11T04:54:49.423Z,0.40
2023-02-11T04:57:17.478Z,0.40
2023-02-11T04:59:45.505Z,0.40
2023-02-11T05:02:13.415Z,0.40
2023-02-11T05:04:42.267Z,0.40
2023-02-11T05:07:10.223Z,0.40
2023-02-11T05:09:38.474Z,0.30
2023-02-11T05:12:06.720Z,0.40
2023-02-11T05:14:34.792Z,0.40
2023-02-11T05:17:02.687Z,0.40
2023-02-11T05:19:32.022Z,0.30
2023-02-11T05:22:02.985Z,0.40
2023-02-11T05:24:35.118Z,0.50
2023-02-11T05:27:03.284Z,0.30
2023-02-11T05:29:30.975Z,0.30
2023-02-11T05:32:00.306Z,0.60
2023-02-11T05:34:28.042Z,0.30
2023-02-11T05:36:57.160Z,0.50
2023-02-11T05:39:24.889Z,0.30
2023-02-11T05:41:52.714Z,0.80
2023-02-11T05:44:20.742Z,0.50
2023-02-11T05:46:49.737Z,0.50
2023-02-11T05:49:20.650Z,0.50
2023-02-11T05:51:49.103Z,0.60
2023-02-11T05:54:17.604Z,0.50
2023-02-11T05:56:46.709Z,0.50
2023-02-11T05:59:15.033Z,0.30
2023-02-11T06:01:43.228Z,0.60
2023-02-11T06:04:11.314Z,0.40
2023-02-11T06:06:39.115Z,0.50
2023-02-11T06:09:07.036Z,0.60
2023-02-11T06:11:34.768Z,0.60
2023-02-11T06:14:02.450Z,1.10
2023-02-11T06:16:31.675Z,0.90
2023-02-11T06:18:59.386Z,1.00
2023-02-11T06:21:42.458Z,1.50
2023-02-11T06:24:12.058Z,1.10
2023-02-11T06:26:40.994Z,1.10
2023-02-11T06:29:09.016Z,1.10
2023-02-11T06:31:39.773Z,1.00
2023-02-11T06:34:10.421Z,1.10
2023-02-11T06:36:41.877Z,0.60
2023-02-11T06:39:10.383Z,0.60
2023-02-11T06:41:38.110Z,0.90
2023-02-11T06:44:07.021Z,0.60
2023-02-11T06:46:35.212Z,0.80
2023-02-11T06:49:03.507Z,0.80
2023-02-11T06:51:31.487Z,1.30
2023-02-11T06:53:59.188Z,1.00
2023-02-11T06:56:27.625Z,1.30
2023-02-11T06:58:57.209Z,1.50
2023-02-11T07:01:28.634Z,1.70
2023-02-11T07:03:56.908Z,1.30
2023-02-11T07:06:28.073Z,1.00
2023-02-11T07:08:56.587Z,1.10
2023-02-11T07:11:29.081Z,0.60
2023-02-11T07:14:04.156Z,1.40
2023-02-11T07:16:36.477Z,2.00
2023-02-11T07:19:04.173Z,1.20
2023-02-11T07:21:34.920Z,1.10
2023-02-11T07:24:11.294Z,0.90
2023-02-11T07:26:39.552Z,1.20
2023-02-11T07:29:08.397Z,0.80
2023-02-11T07:31:37.576Z,0.90
2023-02-11T07:34:06.120Z,0.90
2023-02-11T07:36:34.910Z,1.00
2023-02-11T07:39:03.787Z,1.10
2023-02-11T07:41:31.500Z,0.90
2023-02-11T07:43:59.628Z,0.80
2023-02-11T07:46:28.104Z,1.20
2023-02-11T07:48:56.029Z,2.00
2023-02-11T07:51:31.900Z,2.70
2023-02-11T07:54:01.543Z,2.30
2023-02-11T07:56:30.654Z,2.40
2023-02-11T07:59:03.518Z,2.60
2023-02-11T08:01:31.525Z,3.70
2023-02-11T08:04:01.931Z,5.10
2023-02-11T08:06:34.260Z,6.50
2023-02-11T08:09:09.491Z,6.70
2023-02-11T08:11:37.469Z,8.40
2023-02-11T08:14:05.686Z,7.10
2023-02-11T08:16:37.108Z,6.90
2023-02-11T08:19:11.873Z,9.20
2023-02-11T08:21:41.358Z,8.10
2023-02-11T08:24:10.645Z,6.10
2023-02-11T08:26:38.821Z,5.40
2023-02-11T08:29:12.148Z,5.40
2023-02-11T08:31:44.342Z,5.60
2023-02-11T08:34:14.803Z,4.20
2023-02-11T08:36:43.009Z,5.00
2023-02-11T08:39:21.662Z,2.70
2023-02-11T08:41:53.743Z,2.10
2023-02-11T08:44:23.275Z,1.50
2023-02-11T08:46:52.425Z,2.40
2023-02-11T08:49:20.672Z,1.50
2023-02-11T08:51:49.594Z,1.10
2023-02-11T08:54:19.695Z,1.60
2023-02-11T08:56:51.854Z,3.40
2023-02-11T08:59:20.169Z,3.60
2023-02-11T09:01:48.586Z,2.80
2023-02-11T09:04:17.945Z,2.30
2023-02-11T09:06:48.476Z,2.90
2023-02-11T09:09:16.750Z,2.70
2023-02-11T09:11:46.049Z,2.90
2023-02-11T09:14:23.117Z,2.80
2023-02-11T09:16:53.520Z,2.60
2023-02-11T09:19:23.039Z,2.60
2023-02-11T09:21:50.752Z,2.10
2023-02-11T09:24:20.536Z,2.40
2023-02-11T09:26:49.646Z,1.50
2023-02-11T09:29:17.697Z,1.50
2023-02-11T09:31:45.811Z,2.10
2023-02-11T09:34:14.329Z,1.80
2023-02-11T09:36:42.549Z,1.60
2023-02-11T09:39:18.442Z,1.80
2023-02-11T09:42:18.694Z,3.00
2023-02-11T09:44:48.041Z,3.00
2023-02-11T09:47:30.400Z,3.00
2023-02-11T09:50:13.786Z,3.20
2023-02-11T09:52:56.143Z,3.00
2023-02-11T09:55:39.893Z,2.80
2023-02-11T09:58:26.773Z,2.50
2023-02-11T10:01:27.151Z,2.80
2023-02-11T10:04:45.099Z,2.70
2023-02-11T10:07:37.242Z,2.30
2023-02-11T10:10:42.215Z,2.20
2023-02-11T10:13:32.753Z,1.90
2023-02-11T10:16:16.111Z,1.40
2023-02-11T10:19:08.977Z,1.00
2023-02-11T10:21:54.102Z,1.60
2023-02-11T10:24:24.848Z,1.30
2023-02-11T10:26:53.101Z,1.60
2023-02-11T10:29:46.531Z,1.50
2023-02-11T10:32:41.904Z,1.00
2023-02-11T10:35:21.752Z,1.10
2023-02-11T10:37:50.828Z,1.10
2023-02-11T10:40:27.320Z,1.00
2023-02-11T10:43:04.294Z,1.00
2023-02-11T10:45:40.676Z,0.90
2023-02-11T10:48:38.049Z,0.70
2023-02-11T10:51:26.942Z,1.10
2023-02-11T10:54:08.354Z,1.00
2023-02-11T10:56:46.522Z,0.90
2023-02-11T10:59:18.124Z,0.70
2023-02-11T11:01:52.947Z,1.10
2023-02-11T11:04:31.352Z,1.00
2023-02-11T11:07:30.499Z,0.50
2023-02-11T11:10:31.913Z,1.20
2023-02-11T11:12:59.772Z,1.10
2023-02-11T11:15:31.422Z,1.20
2023-02-11T11:18:22.642Z,1.20
2023-02-11T11:21:13.662Z,1.00
2023-02-11T11:23:54.400Z,0.80
2023-02-11T11:26:30.321Z,0.80
2023-02-11T11:29:12.459Z,0.60
2023-02-11T11:32:04.994Z,0.80
2023-02-11T11:34:41.959Z,1.20
2023-02-11T11:37:36.333Z,0.90
2023-02-11T11:40:13.963Z,1.10
2023-02-11T11:42:45.147Z,1.00
2023-02-11T11:45:25.010Z,0.80
2023-02-11T11:48:28.289Z,0.70
2023-02-11T11:51:02.359Z,0.60
2023-02-11T11:54:20.729Z,0.70
2023-02-11T11:57:20.758Z,0.60
2023-02-11T11:59:48.809Z,0.60
2023-02-11T12:02:51.135Z,0.90
2023-02-11T12:05:31.839Z,0.50
2023-02-11T12:08:44.345Z,0.70
2023-02-11T12:12:18.615Z,0.70
2023-02-11T12:15:07.708Z,0.60
2023-02-11T12:18:06.238Z,0.80
2023-02-11T12:21:10.734Z,0.80
2023-02-11T12:23:52.138Z,0.80
2023-02-11T12:29:27.817Z,0.70
2023-02-11T12:32:30.004Z,0.90
2023-02-11T12:35:21.724Z,0.80
2023-02-11T12:38:18.869Z,0.80
2023-02-11T12:41:53.342Z,0.80
2023-02-11T12:44:46.231Z,0.80
2023-02-11T12:47:44.469Z,0.70
2023-02-11T12:50:53.898Z,1.20
2023-02-11T12:54:07.038Z,0.80
2023-02-11T12:57:15.144Z,1.00
2023-02-11T13:00:22.282Z,1.00
2023-02-11T13:03:02.362Z,1.10
2023-02-11T13:05:44.634Z,0.90
2023-02-11T13:08:23.176Z,0.90
2023-02-11T13:10:59.029Z,0.80
2023-02-11T13:13:47.424Z,1.10
2023-02-11T13:16:50.340Z,0.80
2023-02-11T13:19:52.561Z,0.60
2023-02-11T13:22:33.878Z,0.80
2023-02-11T13:25:39.107Z,0.90
2023-02-11T13:28:29.559Z,0.60
2023-02-11T13:31:03.696Z,0.90
2023-02-11T13:33:43.253Z,1.10
2023-02-11T13:36:16.595Z,1.20
2023-02-11T13:38:56.254Z,1.00
2023-02-11T13:41:42.354Z,1.80
2023-02-11T13:44:22.977Z,1.10
2023-02-11T13:47:05.432Z,1.30
2023-02-11T13:49:40.656Z,1.20
2023-02-11T13:52:39.523Z,1.20
2023-02-11T13:55:27.737Z,0.90
2023-02-11T13:58:13.988Z,1.00
2023-02-11T14:00:51.805Z,1.00
2023-02-11T14:03:40.342Z,1.20
2023-02-11T14:06:28.117Z,1.20
2023-02-11T14:09:14.386Z,1.00
2023-02-11T14:11:50.975Z,1.00
2023-02-11T14:14:31.023Z,0.80
2023-02-11T14:17:10.886Z,1.30
2023-02-11T14:19:45.998Z,1.20
2023-02-11T14:22:49.554Z,1.10
2023-02-11T14:25:29.160Z,1.00
2023-02-11T14:28:26.730Z,1.50
2023-02-11T14:31:12.781Z,0.90
2023-02-11T14:34:08.035Z,1.00
2023-02-11T14:36:44.837Z,0.90
2023-02-11T14:39:45.362Z,1.00
2023-02-11T14:42:21.022Z,0.90
2023-02-11T14:44:52.546Z,1.00
2023-02-11T14:47:31.544Z,1.10
2023-02-11T14:49:59.357Z,1.00
2023-02-11T14:52:34.822Z,1.30
2023-02-11T14:55:09.217Z,2.10
2023-02-11T15:00:23.251Z,2.90
2023-02-11T15:03:02.778Z,1.90
2023-02-11T15:05:32.268Z,1.50
2023-02-11T15:08:08.470Z,1.30
2023-02-11T15:10:45.510Z,1.40
2023-02-11T15:13:21.883Z,1.60
2023-02-11T15:16:07.686Z,1.90
2023-02-11T15:18:45.520Z,2.00
2023-02-11T15:21:27.538Z,2.10
2023-02-11T15:24:07.334Z,1.90
2023-02-11T15:26:35.064Z,2.40
2023-02-11T15:29:05.050Z,2.10
2023-02-11T15:31:35.283Z,1.90
2023-02-11T15:34:09.004Z,1.70
2023-02-11T15:36:38.694Z,1.90
2023-02-11T15:39:33.179Z,1.90
2023-02-11T15:42:27.507Z,1.90
2023-02-11T15:45:14.607Z,2.20
2023-02-11T15:47:56.551Z,2.20
2023-02-11T15:50:37.952Z,2.60
2023-02-11T15:53:31.950Z,2.70
2023-02-11T15:56:18.182Z,3.10
2023-02-11T15:58:49.944Z,3.10
2023-02-11T16:01:18.230Z,5.60
2023-02-11T16:03:51.060Z,2.30
2023-02-11T16:06:40.823Z,2.40
2023-02-11T16:09:08.792Z,3.10
2023-02-11T16:11:58.888Z,7.00
2023-02-11T16:14:28.495Z,8.20
2023-02-11T16:17:09.793Z,10.80
2023-02-11T16:19:47.600Z,9.70
2023-02-11T16:22:27.622Z,9.00
2023-02-11T16:24:59.762Z,7.90
2023-02-11T16:27:44.735Z,6.70
2023-02-11T16:30:43.209Z,5.30
2023-02-11T16:33:13.144Z,4.50
2023-02-11T16:35:41.089Z,5.20
2023-02-11T16:38:10.164Z,10.70
2023-02-11T16:40:43.561Z,17.10
2023-02-11T16:43:12.451Z,15.80
2023-02-11T16:45:42.897Z,17.00
2023-02-11T16:48:18.261Z,16.70
2023-02-11T16:50:53.412Z,16.80
2023-02-11T16:53:27.432Z,16.00
2023-02-11T16:55:56.240Z,12.60
2023-02-11T16:58:29.597Z,8.10
2023-02-11T17:01:03.712Z,6.30
2023-02-11T17:03:37.957Z,4.40
2023-02-11T17:08:41.627Z,3.30
2023-02-11T17:11:09.364Z,2.20
2023-02-11T17:13:37.403Z,3.10
2023-02-11T17:16:07.313Z,3.80
2023-02-11T17:18:36.432Z,3.90
2023-02-11T17:21:07.551Z,4.50
2023-02-11T17:23:35.380Z,3.20
2023-02-11T17:26:03.997Z,3.30
2023-02-11T17:28:37.093Z,2.80
2023-02-11T17:31:09.975Z,2.40
2023-02-11T17:33:38.133Z,2.80
2023-02-11T17:36:11.490Z,2.80
2023-02-11T17:38:39.440Z,3.80
2023-02-11T17:41:07.572Z,3.60
2023-02-11T17:43:35.304Z,6.40
2023-02-11T17:46:07.846Z,7.80
2023-02-11T17:48:41.078Z,7.10
2023-02-11T17:51:36.194Z,5.90
2023-02-11T17:54:08.715Z,6.00
2023-02-11T17:56:37.485Z,6.70
2023-02-11T17:59:14.166Z,6.50
2023-02-11T18:01:44.894Z,7.50
2023-02-11T18:04:18.490Z,9.20
2023-02-11T18:06:47.033Z,6.60
2023-02-11T18:09:18.567Z,6.30
2023-02-11T18:11:47.400Z,5.10
2023-02-11T18:14:15.524Z,5.00
2023-02-11T18:16:46.491Z,3.90
2023-02-11T18:19:16.496Z,3.80
2023-02-11T18:21:44.772Z,4.20
2023-02-11T18:24:13.153Z,10.20
2023-02-11T18:26:44.926Z,9.90
2023-02-11T18:29:12.769Z,8.30
2023-02-11T18:31:40.878Z,6.40
2023-02-11T18:34:10.747Z,7.10
2023-02-11T18:36:39.372Z,6.90
2023-02-11T18:39:11.034Z,8.00
2023-02-11T18:41:41.443Z,7.30
2023-02-11T18:44:14.177Z,8.90
2023-02-11T18:46:43.546Z,7.20
2023-02-11T18:49:13.218Z,6.70
2023-02-11T18:51:40.927Z,5.50
2023-02-11T18:54:08.928Z,9.40
2023-02-11T18:56:37.121Z,9.80
2023-02-11T18:59:08.657Z,11.10
2023-02-11T19:01:40.771Z,11.10
2023-02-11T19:04:10.435Z,9.40
2023-02-11T19:06:40.009Z,9.90
2023-02-11T19:09:11.222Z,12.70
2023-02-11T19:11:53.939Z,16.90
2023-02-11T19:14:28.764Z,23.20
2023-02-11T19:17:02.263Z,22.50
2023-02-11T19:19:36.852Z,14.80
2023-02-11T19:22:10.392Z,10.40
2023-02-11T19:24:42.175Z,6.20
2023-02-11T19:27:13.752Z,6.90
2023-02-11T19:29:45.008Z,14.70
2023-02-11T19:32:12.752Z,20.20
2023-02-11T19:34:43.119Z,20.60
2023-02-11T19:37:15.305Z,19.00
2023-02-11T19:39:44.272Z,14.40
2023-02-11T19:42:13.846Z,12.20
2023-02-11T19:44:42.321Z,9.30
2023-02-11T19:47:10.804Z,13.20
2023-02-11T19:49:39.549Z,15.40
2023-02-11T19:52:07.308Z,16.80
2023-02-11T19:54:35.463Z,16.10
2023-02-11T19:57:03.642Z,13.60
2023-02-11T19:59:31.725Z,14.20
2023-02-11T20:02:01.592Z,14.40
2023-02-11T20:04:34.800Z,14.00
2023-02-11T20:07:02.586Z,16.40
2023-02-11T20:09:31.757Z,13.60
2023-02-11T20:12:02.163Z,12.60
2023-02-11T20:14:29.914Z,12.40
2023-02-11T20:16:58.061Z,11.60
2023-02-11T20:19:25.849Z,9.80
2023-02-11T20:21:56.013Z,11.70
2023-02-11T20:24:26.506Z,9.90
2023-02-11T20:26:56.252Z,11.90
2023-02-11T20:29:25.679Z,13.40
2023-02-11T20:31:54.867Z,14.60
2023-02-11T20:34:25.446Z,13.20
2023-02-11T20:36:54.169Z,12.20
2023-02-11T20:39:25.791Z,11.70
2023-02-11T20:41:58.491Z,9.50
2023-02-11T20:44:28.358Z,11.20
2023-02-11T20:46:56.055Z,12.60
2023-02-11T20:49:25.022Z,10.90
2023-02-11T20:51:54.366Z,11.50
2023-02-11T20:54:26.336Z,12.40
2023-02-11T20:56:57.082Z,7.00
2023-02-11T20:59:25.453Z,8.60
2023-02-11T21:01:59.844Z,7.60
2023-02-11T21:07:02.228Z,14.70
2023-02-11T21:09:33.391Z,25.30
2023-02-11T21:12:02.906Z,22.20
2023-02-11T21:14:32.106Z,21.10
2023-02-11T21:16:59.852Z,20.40
2023-02-11T21:19:27.734Z,13.20
2023-02-11T21:21:57.668Z,19.10
2023-02-11T21:24:25.668Z,18.70
2023-02-11T21:26:56.456Z,13.90
2023-02-11T21:29:24.188Z,11.60
2023-02-11T21:31:52.316Z,11.70
2023-02-11T21:34:22.019Z,15.40
2023-02-11T21:36:53.293Z,11.50
2023-02-11T21:39:21.727Z,12.60
2023-02-11T21:41:49.670Z,14.00
2023-02-11T21:44:18.891Z,13.40
2023-02-11T21:46:47.130Z,11.50
2023-02-11T21:49:14.835Z,13.70
2023-02-11T21:51:43.683Z,10.90
2023-02-11T21:54:18.862Z,14.00
2023-02-11T21:56:50.020Z,13.30
2023-02-11T21:59:20.257Z,13.30
2023-02-11T22:01:48.768Z,12.10
2023-02-11T22:04:17.812Z,11.50
2023-02-11T22:06:46.100Z,11.90
2023-02-11T22:09:15.034Z,8.70
2023-02-11T22:11:43.862Z,10.00
2023-02-11T22:14:12.252Z,8.40
2023-02-11T22:16:40.319Z,8.90
2023-02-11T22:19:09.415Z,7.80
2023-02-11T22:21:37.651Z,8.50
2023-02-11T22:24:05.969Z,8.10
2023-02-11T22:26:33.951Z,9.90
2023-02-11T22:29:02.366Z,9.80
2023-02-11T22:31:36.876Z,9.40
2023-02-11T22:34:06.179Z,8.00
2023-02-11T22:36:38.491Z,8.80
2023-02-11T22:39:15.234Z,9.80
2023-02-11T22:41:46.953Z,12.30
2023-02-11T22:44:17.378Z,13.60
2023-02-11T22:46:45.656Z,13.10
2023-02-11T22:49:19.609Z,8.90
2023-02-11T22:51:48.773Z,9.30
2023-02-11T22:54:19.602Z,7.40
2023-02-11T22:56:51.639Z,7.10
2023-02-11T22:59:19.944Z,6.90
2023-02-11T23:01:48.322Z,6.70
2023-02-11T23:04:19.688Z,6.60
2023-02-11T23:06:50.621Z,9.30
2023-02-11T23:09:18.808Z,7.70
2023-02-11T23:11:49.429Z,4.50
2023-02-11T23:14:17.407Z,9.40
2023-02-11T23:16:46.421Z,8.70
2023-02-11T23:19:14.313Z,9.00
2023-02-11T23:21:42.175Z,9.50
2023-02-11T23:24:15.255Z,9.30
2023-02-11T23:26:47.183Z,9.50
2023-02-11T23:29:17.422Z,8.80
2023-02-11T23:31:47.013Z,9.20
2023-02-11T23:34:17.353Z,9.80
2023-02-11T23:36:45.218Z,10.50
2023-02-11T23:39:15.557Z,12.00
2023-02-11T23:41:44.997Z,16.40
2023-02-11T23:44:13.570Z,22.20
2023-02-11T23:46:42.069Z,22.90
2023-02-11T23:49:10.984Z,21.90
2023-02-11T23:51:41.522Z,19.70
2023-02-11T23:54:14.369Z,18.30
2023-02-11T23:56:42.848Z,11.60
2023-02-11T23:59:11.752Z,8.20
